Maxbass, North Dakota
Current Conditions -  °F | °C
As of 10:58 PM on Monday 26 Jan 2015 (Local Time) from KMIB Reporting Station
Clear Clear  
Wind Chill: 28°   Ceiling: Unl
Heat Index: 28°   Visibility: 10mi
Dew Point: 28°   Wind: 3mph
Humidity: 99%   Direction: 130°SE
Pressure: 29.9"   Gusts: NA
Location:  48.72°N, 101.14°W
Report Text: KMIB 270458Z AUTO 13003KT 10SM CLR M02/M02 A2990 RMK AO2 SLP149 T10201021 $
Loading
Personal Weather Stations






























Interactive Weather Map New forecast layout! Learn more

10-Day Weather Forecast

Advertisements
Track Severe Weather on mobile